Georgitsi — V7VY5 — position and weather

sailwx.info

Track history (hours):
 
Tides and Currents Weather Stations Pressure Air Temp Water Temp Dewpoint Dewpoint Depression Visibility Wind Speed Wind Dir Waves Ship Positions

Georgitsi

Last reported at 2018-Apr-19 01:31 UTC. Time now 2018-May-26 21:43 UTC.
Position N 28°07' W 016°14'.
Warning: this ship's position is 37 days out of date.

Length 229 m; draft 9.1 m.

Type: Cargo ship. MMSI: 538004242.

Date/timePositionNaut miles runAvg speedWind from/ knotsBaromVisibWave heightAir tempDewpointWater temp
2018-Apr-19 01:31N 28°07' W 016°14'113.3
2018-Apr-19 01:26N 28°08' W 016°13'613.3
2018-Apr-19 00:59N 28°12' W 016°09'613.3
2018-Apr-19 00:30N 28°17' W 016°04'713.4
2018-Apr-19 00:00N 28°22' W 015°60'713.5
2018-Apr-18 23:30N 28°28' W 015°55'713.4
2018-Apr-18 23:00N 28°33' W 015°50'713.3
2018-Apr-18 22:30N 28°38' W 015°45'613.1
2018-Apr-18 22:00N 28°42' W 015°39'713.1
2018-Apr-18 21:30N 28°47' W 015°34'613.0
2018-Apr-18 21:00N 28°51' W 015°28'612.7
2018-Apr-18 20:30N 28°55' W 015°23'713.0
2018-Apr-18 20:00N 28°60' W 015°18'713.4
2018-Apr-18 19:30N 29°04' W 015°12'713.4
2018-Apr-18 19:00N 29°09' W 015°06'713.4
2018-Apr-18 18:30N 29°13' W 015°01'713.4
2018-Apr-18 18:00N 29°18' W 014°55'713.3
2018-Apr-18 17:30N 29°22' W 014°50'713.3
2018-Apr-18 17:00N 29°27' W 014°44'612.9
2018-Apr-18 16:30N 29°31' W 014°38'713.3
2018-Apr-18 16:00N 29°35' W 014°33'713.4
2018-Apr-18 15:30N 29°40' W 014°27'713.4
2018-Apr-18 15:00N 29°45' W 014°22'713.4
2018-Apr-18 14:27N 29°50' W 014°16'713.2
2018-Apr-18 13:57N 29°55' W 014°10'612.7
2018-Apr-18 13:30N 29°59' W 014°05'612.5
2018-Apr-18 13:00N 30°02' W 013°59'713.0
2018-Apr-18 12:28N 30°06' W 013°53'613.0
2018-Apr-18 12:00N 30°11' W 013°48'713.1
2018-Apr-18 11:27N 30°15' W 013°42'613.1
2018-Apr-18 11:00N 30°19' W 013°37'613.0
2018-Apr-18 10:30N 30°24' W 013°31'612.9
2018-Apr-18 10:00N 30°28' W 013°26'612.7
2018-Apr-18 09:30N 30°32' W 013°20'1213.2
2018-Apr-18 08:36N 30°41' W 013°10'213.3
2018-Apr-18 08:29N 30°42' W 013°09'613.3
2018-Apr-18 08:00N 30°46' W 013°04'713.0
2018-Apr-18 07:30N 30°50' W 012°58'613.2
2018-Apr-18 07:00N 30°54' W 012°52'713.1
2018-Apr-18 06:30N 30°59' W 012°47'613.0
2018-Apr-18 06:00N 31°04' W 012°41'713.5
2018-Apr-18 05:30N 31°08' W 012°36'713.6
2018-Apr-18 04:59N 31°12' W 012°29'713.4
2018-Apr-18 04:26N 31°17' W 012°23'713.3
2018-Apr-18 03:56N 31°22' W 012°17'713.4
2018-Apr-18 03:26N 31°26' W 012°11'1213.3
2018-Apr-18 02:30N 31°35' W 012°00'2413.2
2018-Apr-18 00:42N 31°51' W 011°40'313.1
2018-Apr-18 00:29N 31°53' W 011°37'1813.4
2018-Apr-17 23:10N 32°05' W 011°22'413.6
2018-Apr-17 22:53N 32°07' W 011°18'1313.4
2018-Apr-17 21:56N 32°16' W 011°07'613.3
2018-Apr-17 21:30N 32°20' W 011°02'713.2
2018-Apr-17 20:58N 32°24' W 010°56'35511.9
2018-Apr-16 15:16N 36°07' W 005°22'0 0.3
2018-Apr-16 14:58N 36°07' W 005°22'0 0.0
2018-Apr-16 14:28N 36°07' W 005°22'0 0.0
2018-Apr-16 13:58N 36°07' W 005°22'0 0.1
2018-Apr-16 13:28N 36°07' W 005°22'0 0.0
2018-Apr-16 12:58N 36°07' W 005°22'0 0.1
2018-Apr-16 12:28N 36°07' W 005°22'0 0.1
2018-Apr-16 11:58N 36°07' W 005°22'0 0.0
2018-Apr-16 11:28N 36°07' W 005°22'0 0.0
2018-Apr-16 10:58N 36°07' W 005°22'0 0.0
2018-Apr-16 10:28N 36°07' W 005°22'0 0.0
2018-Apr-16 09:58N 36°07' W 005°22'0 0.0
2018-Apr-16 09:28N 36°07' W 005°22'0 0.0
2018-Apr-16 08:58N 36°07' W 005°22'0 0.0
2018-Apr-16 08:25N 36°07' W 005°22'0 0.0
2018-Apr-16 07:58N 36°07' W 005°22'0 0.0
2018-Apr-16 07:25N 36°07' W 005°22'0 0.1
2018-Apr-16 06:52N 36°07' W 005°22'0 0.1
2018-Apr-16 06:28N 36°07' W 005°22'0 0.0
2018-Apr-16 05:52N 36°07' W 005°22'0 0.0
2018-Apr-16 05:28N 36°07' W 005°22'0 0.1
2018-Apr-16 04:58N 36°07' W 005°22'0 0.1
2018-Apr-16 04:28N 36°07' W 005°22'0 0.1
2018-Apr-16 03:58N 36°07' W 005°22'0 0.1
2018-Apr-16 03:28N 36°07' W 005°22'0 0.2
2018-Apr-16 02:58N 36°07' W 005°22'0 0.3
2018-Apr-16 02:28N 36°07' W 005°22'0 0.1
2018-Apr-16 01:58N 36°07' W 005°22'0 0.0
2018-Apr-16 01:28N 36°07' W 005°22'0 0.1
2018-Apr-16 00:55N 36°07' W 005°22'1 2.9
2018-Apr-16 00:30N 36°06' W 005°22'3 5.7
2018-Apr-16 00:00N 36°06' W 005°18'4 8.3
2018-Apr-15 23:30N 36°08' W 005°14'0 0.8
2018-Apr-15 23:00N 36°08' W 005°14'1 2.3
2018-Apr-15 22:31N 36°08' W 005°13'1 1.0
2018-Apr-15 21:59N 36°08' W 005°12'0 0.6
2018-Apr-15 21:30N 36°08' W 005°12'0 0.5
2018-Apr-15 21:00N 36°08' W 005°12'0 0.7
2018-Apr-15 20:30N 36°09' W 005°13'0 0.9
2018-Apr-15 19:59N 36°09' W 005°13'1 1.1
2018-Apr-15 19:30N 36°09' W 005°14'0 0.7
2018-Apr-15 19:00N 36°09' W 005°14'1 1.0
2018-Apr-15 18:30N 36°09' W 005°14'2 3.2
2018-Apr-15 18:00N 36°08' W 005°12'0 0.5
2018-Apr-15 17:21N 36°08' W 005°12'  
2018-Apr-12 23:53N 37°05' E 012°36'1114.5
2018-Apr-12 23:08N 37°01' E 012°48'213.2
2018-Apr-12 22:59N 37°00' E 012°51'815.5
2018-Apr-12 22:29N 36°58' E 013°00'815.0
2018-Apr-12 21:58N 36°56' E 013°10'713.8
2018-Apr-12 21:29N 36°55' E 013°18'713.8
2018-Apr-12 21:00N 36°53' E 013°26'714.3
2018-Apr-12 20:30N 36°51' E 013°34'714.5
2018-Apr-12 20:00N 36°48' E 013°42'714.6
2018-Apr-12 19:30N 36°46' E 013°51'714.5
2018-Apr-12 19:00N 36°43' E 013°60'814.4
2018-Apr-12 18:29N 36°40' E 014°08'714.2
2018-Apr-12 18:00N 36°37' E 014°16'714.1
2018-Apr-12 17:30N 36°34' E 014°24'714.0
2018-Apr-12 17:00N 36°31' E 014°32'713.9
2018-Apr-12 16:30N 36°29' E 014°40'913.9
2018-Apr-12 15:50N 36°28' E 014°51'812.8
2018-Apr-12 15:14N 36°27' E 015°01'516.0
2018-Apr-12 14:55N 36°27' E 015°07'713.8
2018-Apr-12 14:26N 36°27' E 015°15'39014.2
2018-Apr-11 10:59N 36°29' E 023°21'714.5
2018-Apr-11 10:29N 36°34' E 023°28'714.4
2018-Apr-11 09:58N 36°40' E 023°34'714.0
2018-Apr-11 09:29N 36°44' E 023°40'914.2
2018-Apr-11 08:53N 36°52' E 023°45'514.4
2018-Apr-11 08:30N 36°56' E 023°49'714.5
2018-Apr-11 08:00N 37°02' E 023°55'714.4
2018-Apr-11 07:30N 37°08' E 023°60'714.1
2018-Apr-11 07:00N 37°13' E 024°05'714.3
2018-Apr-11 06:31N 37°19' E 024°10'2514.6
2018-Apr-11 04:48N 37°39' E 024°28'12514.6
2018-Apr-10 20:15N 39°34' E 025°32'1214.7
2018-Apr-10 19:25N 39°44' E 025°39'614.6
2018-Apr-10 19:00N 39°50' E 025°43'814.9
2018-Apr-10 18:30N 39°56' E 025°49'914.8
2018-Apr-10 17:53N 40°01' E 025°59'132 4.6
2018-Apr-09 13:23N 40°53' E 028°38'513.3
2018-Apr-09 13:00N 40°54' E 028°45'713.4
2018-Apr-09 12:30N 40°56' E 028°53'5 9.1
2018-Apr-09 11:58N 40°59' E 028°59'  
Track history (hours):
 
Tides and Currents Weather Stations Pressure Air Temp Water Temp Dewpoint Dewpoint Depression Visibility Wind Speed Wind Dir Waves Ship Positions

Georgitsi

Last reported at 2018-Apr-19 01:31 UTC. Time now 2018-May-26 21:43 UTC.
Position N 28°07' W 016°14'.
Warning: this ship's position is 37 days out of date.

Length 229 m; draft 9.1 m.

Type: Cargo ship. MMSI: 538004242.

Date/timePositionNaut miles runAvg speedWind from/ knotsBaromVisibWave heightAir tempDewpointWater temp
2018-Apr-19 01:31N 28°07' W 016°14'113.3
2018-Apr-19 01:26N 28°08' W 016°13'613.3
2018-Apr-19 00:59N 28°12' W 016°09'613.3
2018-Apr-19 00:30N 28°17' W 016°04'713.4
2018-Apr-19 00:00N 28°22' W 015°60'713.5
2018-Apr-18 23:30N 28°28' W 015°55'713.4
2018-Apr-18 23:00N 28°33' W 015°50'713.3
2018-Apr-18 22:30N 28°38' W 015°45'613.1
2018-Apr-18 22:00N 28°42' W 015°39'713.1
2018-Apr-18 21:30N 28°47' W 015°34'613.0
2018-Apr-18 21:00N 28°51' W 015°28'612.7
2018-Apr-18 20:30N 28°55' W 015°23'713.0
2018-Apr-18 20:00N 28°60' W 015°18'713.4
2018-Apr-18 19:30N 29°04' W 015°12'713.4
2018-Apr-18 19:00N 29°09' W 015°06'713.4
2018-Apr-18 18:30N 29°13' W 015°01'713.4
2018-Apr-18 18:00N 29°18' W 014°55'713.3
2018-Apr-18 17:30N 29°22' W 014°50'713.3
2018-Apr-18 17:00N 29°27' W 014°44'612.9
2018-Apr-18 16:30N 29°31' W 014°38'713.3
2018-Apr-18 16:00N 29°35' W 014°33'713.4
2018-Apr-18 15:30N 29°40' W 014°27'713.4
2018-Apr-18 15:00N 29°45' W 014°22'713.4
2018-Apr-18 14:27N 29°50' W 014°16'713.2
2018-Apr-18 13:57N 29°55' W 014°10'612.7
2018-Apr-18 13:30N 29°59' W 014°05'612.5
2018-Apr-18 13:00N 30°02' W 013°59'713.0
2018-Apr-18 12:28N 30°06' W 013°53'613.0
2018-Apr-18 12:00N 30°11' W 013°48'713.1
2018-Apr-18 11:27N 30°15' W 013°42'613.1
2018-Apr-18 11:00N 30°19' W 013°37'613.0
2018-Apr-18 10:30N 30°24' W 013°31'612.9
2018-Apr-18 10:00N 30°28' W 013°26'612.7
2018-Apr-18 09:30N 30°32' W 013°20'1213.2
2018-Apr-18 08:36N 30°41' W 013°10'213.3
2018-Apr-18 08:29N 30°42' W 013°09'613.3
2018-Apr-18 08:00N 30°46' W 013°04'713.0
2018-Apr-18 07:30N 30°50' W 012°58'613.2
2018-Apr-18 07:00N 30°54' W 012°52'713.1
2018-Apr-18 06:30N 30°59' W 012°47'613.0
2018-Apr-18 06:00N 31°04' W 012°41'713.5
2018-Apr-18 05:30N 31°08' W 012°36'713.6
2018-Apr-18 04:59N 31°12' W 012°29'713.4
2018-Apr-18 04:26N 31°17' W 012°23'713.3
2018-Apr-18 03:56N 31°22' W 012°17'713.4
2018-Apr-18 03:26N 31°26' W 012°11'1213.3
2018-Apr-18 02:30N 31°35' W 012°00'2413.2
2018-Apr-18 00:42N 31°51' W 011°40'313.1
2018-Apr-18 00:29N 31°53' W 011°37'1813.4
2018-Apr-17 23:10N 32°05' W 011°22'413.6
2018-Apr-17 22:53N 32°07' W 011°18'1313.4
2018-Apr-17 21:56N 32°16' W 011°07'613.3
2018-Apr-17 21:30N 32°20' W 011°02'713.2
2018-Apr-17 20:58N 32°24' W 010°56'35511.9
2018-Apr-16 15:16N 36°07' W 005°22'0 0.3
2018-Apr-16 14:58N 36°07' W 005°22'0 0.0
2018-Apr-16 14:28N 36°07' W 005°22'0 0.0
2018-Apr-16 13:58N 36°07' W 005°22'0 0.1
2018-Apr-16 13:28N 36°07' W 005°22'0 0.0
2018-Apr-16 12:58N 36°07' W 005°22'0 0.1
2018-Apr-16 12:28N 36°07' W 005°22'0 0.1
2018-Apr-16 11:58N 36°07' W 005°22'0 0.0
2018-Apr-16 11:28N 36°07' W 005°22'0 0.0
2018-Apr-16 10:58N 36°07' W 005°22'0 0.0
2018-Apr-16 10:28N 36°07' W 005°22'0 0.0
2018-Apr-16 09:58N 36°07' W 005°22'0 0.0
2018-Apr-16 09:28N 36°07' W 005°22'0 0.0
2018-Apr-16 08:58N 36°07' W 005°22'0 0.0
2018-Apr-16 08:25N 36°07' W 005°22'0 0.0
2018-Apr-16 07:58N 36°07' W 005°22'0 0.0
2018-Apr-16 07:25N 36°07' W 005°22'0 0.1
2018-Apr-16 06:52N 36°07' W 005°22'0 0.1
2018-Apr-16 06:28N 36°07' W 005°22'0 0.0
2018-Apr-16 05:52N 36°07' W 005°22'0 0.0
2018-Apr-16 05:28N 36°07' W 005°22'0 0.1
2018-Apr-16 04:58N 36°07' W 005°22'0 0.1
2018-Apr-16 04:28N 36°07' W 005°22'0 0.1
2018-Apr-16 03:58N 36°07' W 005°22'0 0.1
2018-Apr-16 03:28N 36°07' W 005°22'0 0.2
2018-Apr-16 02:58N 36°07' W 005°22'0 0.3
2018-Apr-16 02:28N 36°07' W 005°22'0 0.1
2018-Apr-16 01:58N 36°07' W 005°22'0 0.0
2018-Apr-16 01:28N 36°07' W 005°22'0 0.1
2018-Apr-16 00:55N 36°07' W 005°22'1 2.9
2018-Apr-16 00:30N 36°06' W 005°22'3 5.7
2018-Apr-16 00:00N 36°06' W 005°18'4 8.3
2018-Apr-15 23:30N 36°08' W 005°14'0 0.8
2018-Apr-15 23:00N 36°08' W 005°14'1 2.3
2018-Apr-15 22:31N 36°08' W 005°13'1 1.0
2018-Apr-15 21:59N 36°08' W 005°12'0 0.6
2018-Apr-15 21:30N 36°08' W 005°12'0 0.5
2018-Apr-15 21:00N 36°08' W 005°12'0 0.7
2018-Apr-15 20:30N 36°09' W 005°13'0 0.9
2018-Apr-15 19:59N 36°09' W 005°13'1 1.1
2018-Apr-15 19:30N 36°09' W 005°14'0 0.7
2018-Apr-15 19:00N 36°09' W 005°14'1 1.0
2018-Apr-15 18:30N 36°09' W 005°14'2 3.2
2018-Apr-15 18:00N 36°08' W 005°12'0 0.5
2018-Apr-15 17:21N 36°08' W 005°12'  
2018-Apr-12 23:53N 37°05' E 012°36'1114.5
2018-Apr-12 23:08N 37°01' E 012°48'213.2
2018-Apr-12 22:59N 37°00' E 012°51'815.5
2018-Apr-12 22:29N 36°58' E 013°00'815.0
2018-Apr-12 21:58N 36°56' E 013°10'713.8
2018-Apr-12 21:29N 36°55' E 013°18'713.8
2018-Apr-12 21:00N 36°53' E 013°26'714.3
2018-Apr-12 20:30N 36°51' E 013°34'714.5
2018-Apr-12 20:00N 36°48' E 013°42'714.6
2018-Apr-12 19:30N 36°46' E 013°51'714.5
2018-Apr-12 19:00N 36°43' E 013°60'814.4
2018-Apr-12 18:29N 36°40' E 014°08'714.2
2018-Apr-12 18:00N 36°37' E 014°16'714.1
2018-Apr-12 17:30N 36°34' E 014°24'714.0
2018-Apr-12 17:00N 36°31' E 014°32'713.9
2018-Apr-12 16:30N 36°29' E 014°40'913.9
2018-Apr-12 15:50N 36°28' E 014°51'812.8
2018-Apr-12 15:14N 36°27' E 015°01'516.0
2018-Apr-12 14:55N 36°27' E 015°07'713.8
2018-Apr-12 14:26N 36°27' E 015°15'39014.2
2018-Apr-11 10:59N 36°29' E 023°21'714.5
2018-Apr-11 10:29N 36°34' E 023°28'714.4
2018-Apr-11 09:58N 36°40' E 023°34'714.0
2018-Apr-11 09:29N 36°44' E 023°40'914.2
2018-Apr-11 08:53N 36°52' E 023°45'514.4
2018-Apr-11 08:30N 36°56' E 023°49'714.5
2018-Apr-11 08:00N 37°02' E 023°55'714.4
2018-Apr-11 07:30N 37°08' E 023°60'714.1
2018-Apr-11 07:00N 37°13' E 024°05'714.3
2018-Apr-11 06:31N 37°19' E 024°10'2514.6
2018-Apr-11 04:48N 37°39' E 024°28'12514.6
2018-Apr-10 20:15N 39°34' E 025°32'1214.7
2018-Apr-10 19:25N 39°44' E 025°39'614.6
2018-Apr-10 19:00N 39°50' E 025°43'814.9
2018-Apr-10 18:30N 39°56' E 025°49'914.8
2018-Apr-10 17:53N 40°01' E 025°59'132 4.6
2018-Apr-09 13:23N 40°53' E 028°38'513.3
2018-Apr-09 13:00N 40°54' E 028°45'713.4
2018-Apr-09 12:30N 40°56' E 028°53'5 9.1
2018-Apr-09 11:58N 40°59' E 028°59'  

Dump ship's entire track history